Time;durP1;ratioP1;P1;durP2;ratioP2;P2;SDS_P1;SDS_P2;PMS_P1;PMS_P2;Temp;Humidity;BMP_temperature;BMP_pressure;BME280_temperature;BME280_humidity;BME280_pressure;Samples;Min_cycle;Max_cycle;Signal;HPM_P1;HPM_P2
2023/01/25 00:02:08;;;;;;;22.02;10.73;;;0.70;99.90;;;;;;7409068;19;19982;-75
2023/01/25 00:04:37;;;;;;;17.20;9.15;;;1.10;99.90;;;;;;7409830;19;20328;-76
2023/01/25 00:07:05;;;;;;;19.45;10.02;;;1.60;99.90;;;;;;7407057;19;19922;-76
2023/01/25 00:09:34;;;;;;;19.02;10.00;;;1.50;99.90;;;;;;7406821;19;19918;-75
2023/01/25 00:12:03;;;;;;;17.05;9.38;;;1.10;99.90;;;;;;7406654;19;19970;-75
2023/01/25 00:14:32;;;;;;;15.32;8.90;;;1.60;99.90;;;;;;7406904;19;19922;-75
2023/01/25 00:17:04;;;;;;;17.92;9.52;;;1.80;99.90;;;;;;7405219;19;19918;-75
2023/01/25 00:19:33;;;;;;;17.05;9.50;;;0.50;99.90;;;;;;7408923;19;19922;-75
2023/01/25 00:22:01;;;;;;;19.70;10.18;;;1.70;99.90;;;;;;7407872;19;19930;-75
2023/01/25 00:24:30;;;;;;;16.50;9.27;;;0.50;99.90;;;;;;7407657;19;19915;-75
2023/01/25 00:26:59;;;;;;;19.23;10.10;;;2.00;99.90;;;;;;7404905;19;19906;-75
2023/01/25 00:29:28;;;;;;;18.52;9.70;;;0.40;99.90;;;;;;7407597;19;20068;-75
2023/01/25 00:32:26;;;;;;;18.50;10.20;;;0.60;99.90;;;;;;7403470;19;19917;-75
2023/01/25 00:34:55;;;;;;;19.83;9.60;;;1.50;99.90;;;;;;7404583;19;19924;-75
2023/01/25 00:37:31;;;;;;;18.10;9.20;;;0.90;99.90;;;;;;7403740;19;19921;-75
2023/01/25 00:40:00;;;;;;;16.67;8.75;;;1.50;99.90;;;;;;7404188;19;19922;-76
2023/01/25 00:42:29;;;;;;;18.45;10.30;;;1.80;99.90;;;;;;7405057;19;19986;-75
2023/01/25 00:44:58;;;;;;;19.33;10.63;;;0.50;99.90;;;;;;7405905;19;19917;-75
2023/01/25 00:47:31;;;;;;;18.58;9.77;;;1.10;99.90;;;;;;7404425;19;20256;-75
2023/01/25 00:50:00;;;;;;;22.35;9.73;;;0.20;99.90;;;;;;7404033;19;19940;-76
2023/01/25 00:52:28;;;;;;;19.80;9.85;;;1.20;99.90;;;;;;7402600;19;19924;-75
2023/01/25 00:54:58;;;;;;;20.70;10.40;;;1.50;99.90;;;;;;7407982;19;20320;-75
2023/01/25 00:57:27;;;;;;;17.70;9.38;;;1.70;99.90;;;;;;7403768;19;19944;-75
2023/01/25 00:59:56;;;;;;;20.67;9.95;;;0.30;99.90;;;;;;7406621;19;19918;-75
2023/01/25 01:02:25;;;;;;;19.58;10.07;;;0.70;99.90;;;;;;7403736;19;20412;-75
2023/01/25 01:04:56;;;;;;;20.30;10.57;;;0.50;99.90;;;;;;7403626;19;19926;-76
2023/01/25 01:07:25;;;;;;;21.08;9.57;;;0.60;99.90;;;;;;7401961;19;19925;-75
2023/01/25 01:09:54;;;;;;;22.75;10.90;;;0.50;99.90;;;;;;7404013;19;20024;-75
2023/01/25 01:12:23;;;;;;;23.23;10.75;;;0.20;99.90;;;;;;7403444;19;19911;-75
2023/01/25 01:14:52;;;;;;;20.83;10.52;;;0.30;99.90;;;;;;7403796;19;19993;-75
2023/01/25 01:17:21;;;;;;;22.60;10.68;;;1.70;99.90;;;;;;7403902;19;19930;-75
2023/01/25 01:19:49;;;;;;;25.15;11.52;;;0.80;99.90;;;;;;7403430;19;19915;-75
2023/01/25 01:22:21;;;;;;;25.20;10.95;;;1.40;99.90;;;;;;7403714;19;19911;-75
2023/01/25 01:24:50;;;;;;;23.02;11.70;;;1.20;99.90;;;;;;7406579;19;19918;-75
2023/01/25 01:27:19;;;;;;;22.38;11.25;;;1.10;99.90;;;;;;7403034;19;19943;-75
2023/01/25 01:29:48;;;;;;;22.17;11.20;;;0.70;99.90;;;;;;7407084;19;19929;-75
2023/01/25 01:32:17;;;;;;;22.85;10.48;;;0.10;99.90;;;;;;7403236;19;19990;-75
2023/01/25 01:34:46;;;;;;;22.52;10.68;;;-0.20;99.90;;;;;;7405959;19;19933;-75
2023/01/25 01:37:15;;;;;;;23.42;11.27;;;1.00;99.90;;;;;;7405419;19;19915;-75
2023/01/25 01:39:46;;;;;;;25.23;11.38;;;1.00;99.90;;;;;;7403056;19;19921;-76
2023/01/25 01:42:15;;;;;;;23.63;11.60;;;0.40;99.90;;;;;;7407139;19;19929;-76
2023/01/25 01:44:47;;;;;;;23.67;10.40;;;0.20;99.90;;;;;;7406117;19;19923;-75
2023/01/25 01:47:20;;;;;;;22.05;11.20;;;0.30;99.90;;;;;;7404867;19;19925;-75
2023/01/25 01:49:53;;;;;;;26.20;12.52;;;1.00;99.90;;;;;;7399363;19;19918;-75
2023/01/25 01:52:26;;;;;;;25.33;12.43;;;0.30;99.90;;;;;;7405059;19;20245;-75
2023/01/25 01:55:01;;;;;;;24.08;11.40;;;0.10;99.90;;;;;;7406411;19;20004;-75
2023/01/25 01:57:36;;;;;;;24.83;12.23;;;0.40;99.90;;;;;;7402286;19;19921;-75
2023/01/25 02:00:09;;;;;;;22.40;10.88;;;0.00;99.90;;;;;;7403886;19;19926;-75
2023/01/25 02:02:38;;;;;;;24.17;12.68;;;0.60;99.90;;;;;;7407010;19;19925;-75
2023/01/25 02:05:13;;;;;;;25.92;11.68;;;1.00;99.90;;;;;;7403861;19;19922;-75
2023/01/25 02:07:42;;;;;;;26.65;12.65;;;0.50;99.90;;;;;;7400331;19;19910;-75
2023/01/25 02:10:15;;;;;;;25.98;12.18;;;0.50;99.90;;;;;;7403039;19;19941;-75
2023/01/25 02:12:45;;;;;;;26.60;11.70;;;-0.10;99.90;;;;;;7403536;19;20352;-75
2023/01/25 02:15:14;;;;;;;27.48;13.13;;;-0.20;99.90;;;;;;7402748;19;19918;-75
2023/01/25 02:17:44;;;;;;;29.80;12.85;;;0.40;99.90;;;;;;7405565;19;19918;-75
2023/01/25 02:20:21;;;;;;;26.75;12.25;;;-0.50;99.90;;;;;;7403048;19;19927;-77
2023/01/25 02:22:58;;;;;;;26.13;12.90;;;-0.50;99.90;;;;;;7405694;19;19933;-75
2023/01/25 02:25:30;;;;;;;28.23;12.52;;;1.00;99.90;;;;;;7403828;19;19933;-75
2023/01/25 02:28:05;;;;;;;28.17;14.18;;;0.20;99.90;;;;;;7404960;19;19929;-75
2023/01/25 02:30:35;;;;;;;28.65;12.77;;;-0.50;99.90;;;;;;7402470;19;19925;-75
2023/01/25 02:33:04;;;;;;;27.98;12.80;;;-0.20;99.90;;;;;;7402366;19;20008;-75
2023/01/25 02:35:43;;;;;;;29.25;14.10;;;0.20;99.90;;;;;;7401150;19;19919;-75
2023/01/25 02:38:13;;;;;;;31.73;13.73;;;-0.40;99.90;;;;;;7402682;19;19926;-75
2023/01/25 02:40:49;;;;;;;25.70;13.38;;;0.90;99.90;;;;;;7402777;19;20253;-75
2023/01/25 02:43:18;;;;;;;28.35;13.55;;;0.60;99.90;;;;;;7403491;19;19918;-75
2023/01/25 02:45:53;;;;;;;26.67;13.18;;;0.70;99.90;;;;;;7402813;19;19929;-75
2023/01/25 02:48:22;;;;;;;27.48;12.70;;;-0.30;99.90;;;;;;7403668;19;19923;-75
2023/01/25 02:50:51;;;;;;;31.38;14.00;;;;;;;;;;7402665;19;19930;-75
2023/01/25 02:53:20;;;;;;;27.08;12.88;;;0.40;99.90;;;;;;7400149;19;19937;-75
2023/01/25 02:55:52;;;;;;;29.58;13.50;;;0.10;99.90;;;;;;7403008;19;19911;-75
2023/01/25 02:58:21;;;;;;;;;;;0.10;99.90;;;;;;7406380;19;20340;-75
2023/01/25 03:00:50;;;;;;;27.60;14.15;;;0.10;99.90;;;;;;7407280;19;20001;-75
2023/01/25 03:03:19;;;;;;;27.70;13.02;;;0.40;99.90;;;;;;7410957;19;19929;-75
2023/01/25 03:05:48;;;;;;;25.75;12.50;;;-0.10;99.90;;;;;;7408225;19;20301;-75
2023/01/25 03:08:16;;;;;;;28.52;13.52;;;0.50;99.90;;;;;;7406515;19;19918;-76
2023/01/25 03:10:45;;;;;;;25.85;12.57;;;0.10;99.90;;;;;;7411059;19;19930;-75
2023/01/25 03:13:17;;;;;;;24.60;12.13;;;0.40;99.90;;;;;;7404545;19;19921;-75
2023/01/25 03:15:46;;;;;;;24.80;12.90;;;0.60;99.90;;;;;;7406715;19;19922;-75
2023/01/25 03:18:14;;;;;;;27.70;12.90;;;1.20;99.90;;;;;;7406978;19;19914;-75
2023/01/25 03:20:43;;;;;;;24.45;11.68;;;-0.20;99.90;;;;;;7407179;19;19918;-76
2023/01/25 03:23:12;;;;;;;29.92;14.80;;;-0.70;99.90;;;;;;7406960;19;19922;-76
2023/01/25 03:25:41;;;;;;;27.77;13.63;;;0.50;99.90;;;;;;7406385;19;19921;-75
2023/01/25 03:28:10;;;;;;;28.38;14.30;;;0.70;99.90;;;;;;7406704;19;19918;-76
2023/01/25 03:30:41;;;;;;;25.27;12.48;;;0.40;99.90;;;;;;7410063;19;19938;-76
2023/01/25 03:33:10;;;;;;;28.35;13.43;;;-0.90;99.90;;;;;;7404574;19;19918;-76
2023/01/25 03:35:39;;;;;;;27.67;13.48;;;-0.60;99.90;;;;;;7406562;19;19915;-75
2023/01/25 03:38:08;;;;;;;25.88;13.88;;;0.50;99.90;;;;;;7406474;19;19917;-76
2023/01/25 03:40:37;;;;;;;27.65;13.25;;;-0.10;99.90;;;;;;7410672;19;20241;-76
2023/01/25 03:43:06;;;;;;;30.70;13.95;;;0.30;99.90;;;;;;7407320;19;19925;-76
2023/01/25 03:45:34;;;;;;;26.52;12.73;;;-0.40;99.90;;;;;;7409597;19;19926;-75
2023/01/25 03:48:06;;;;;;;26.88;12.65;;;0.30;99.90;;;;;;7406222;19;19914;-76
2023/01/25 03:50:35;;;;;;;26.02;14.10;;;-0.40;99.90;;;;;;7406124;19;19922;-76
2023/01/25 03:53:08;;;;;;;30.90;14.35;;;0.60;99.90;;;;;;7404338;19;20229;-76
2023/01/25 03:55:37;;;;;;;31.92;15.80;;;-0.70;99.90;;;;;;7407423;19;19945;-76
2023/01/25 03:58:06;;;;;;;29.02;13.82;;;-0.70;99.90;;;;;;7409106;19;20272;-75
2023/01/25 04:00:35;;;;;;;33.33;14.52;;;-0.60;99.90;;;;;;7409159;19;19914;-75
2023/01/25 04:03:07;;;;;;;31.70;15.07;;;-0.40;99.90;;;;;;7406100;19;19922;-75
2023/01/25 04:05:36;;;;;;;31.85;14.27;;;-0.70;99.90;;;;;;7405560;19;19918;-75
2023/01/25 04:08:05;;;;;;;31.27;14.05;;;-0.50;99.90;;;;;;7406454;19;19911;-75
2023/01/25 04:10:33;;;;;;;29.75;13.57;;;0.10;99.90;;;;;;7405894;19;19918;-75
2023/01/25 04:13:02;;;;;;;32.03;16.20;;;-0.20;99.90;;;;;;7401318;19;19918;-75
2023/01/25 04:15:31;;;;;;;34.78;15.90;;;-0.20;99.90;;;;;;7407571;19;19922;-75
2023/01/25 04:18:00;;;;;;;33.75;16.55;;;0.00;99.90;;;;;;7405341;19;19935;-75
2023/01/25 04:20:33;;;;;;;29.80;14.10;;;-0.70;99.90;;;;;;7405222;19;19939;-75
2023/01/25 04:23:02;;;;;;;30.80;15.23;;;-0.10;99.90;;;;;;7407129;19;19922;-75
2023/01/25 04:25:32;;;;;;;34.20;16.58;;;0.20;99.90;;;;;;7404602;19;20347;-75
2023/01/25 04:28:01;;;;;;;30.15;14.35;;;-1.10;99.90;;;;;;7405195;19;19929;-75
2023/01/25 04:30:30;;;;;;;30.35;13.57;;;-0.60;99.90;;;;;;7404843;19;19923;-75
2023/01/25 04:32:59;;;;;;;34.33;15.38;;;-0.20;99.90;;;;;;7403647;19;19915;-75
2023/01/25 04:35:28;;;;;;;35.03;15.13;;;;;;;;;;7408432;19;19922;-74
2023/01/25 04:41:28;;;;;;;34.13;14.90;;;0.00;99.90;;;;;;7399712;19;19930;-75
2023/01/25 04:43:56;;;;;;;34.63;15.00;;;-0.40;99.90;;;;;;7400134;19;19922;-75
2023/01/25 04:46:25;;;;;;;30.77;13.82;;;0.10;99.90;;;;;;7407261;19;19933;-75
2023/01/25 04:48:54;;;;;;;32.70;15.98;;;-1.00;99.90;;;;;;7407349;19;19918;-75
2023/01/25 04:51:23;;;;;;;31.40;14.63;;;-0.30;99.90;;;;;;7409125;19;19915;-75
2023/01/25 04:53:52;;;;;;;30.38;13.50;;;-1.10;99.90;;;;;;7402400;19;19910;-75
2023/01/25 04:56:21;;;;;;;32.78;16.88;;;-1.10;99.90;;;;;;7404427;19;19925;-75
2023/01/25 04:58:52;;;;;;;33.38;15.27;;;-1.20;99.90;;;;;;7404183;19;19929;-75
2023/01/25 05:01:22;;;;;;;32.65;14.75;;;-0.90;99.90;;;;;;7406865;19;19910;-75
2023/01/25 05:03:50;;;;;;;34.47;15.73;;;-1.10;99.90;;;;;;7408050;19;20355;-75
2023/01/25 05:06:20;;;;;;;30.42;14.50;;;0.40;99.90;;;;;;7402755;19;19914;-75
2023/01/25 05:08:48;;;;;;;35.83;15.70;;;-0.10;99.90;;;;;;7403858;19;19914;-75
2023/01/25 05:11:17;;;;;;;31.63;14.98;;;-0.80;99.90;;;;;;7406291;19;19918;-76
2023/01/25 05:13:46;;;;;;;33.90;15.38;;;-0.50;99.90;;;;;;7402261;19;20277;-76
2023/01/25 05:16:17;;;;;;;33.13;14.85;;;-0.10;99.90;;;;;;7406762;19;19922;-75
2023/01/25 05:18:46;;;;;;;31.73;15.52;;;-0.40;99.90;;;;;;7404741;19;19919;-75
2023/01/25 05:23:56;;;;;;;29.00;14.35;;;0.50;99.90;;;;;;7401729;19;19910;-75
2023/01/25 05:29:06;;;;;;;26.60;12.40;;;-1.00;99.90;;;;;;7404122;19;19965;-75
2023/01/25 05:31:38;;;;;;;33.15;14.77;;;-0.40;99.90;;;;;;7403647;19;19915;-75
2023/01/25 05:34:07;;;;;;;34.20;14.57;;;;;;;;;;7401423;19;19914;-75
2023/01/25 05:36:36;;;;;;;34.90;15.30;;;0.30;99.90;;;;;;7403525;19;19938;-75
2023/01/25 05:39:07;;;;;;;33.80;15.23;;;-1.00;99.90;;;;;;7407300;19;19918;-75
2023/01/25 05:41:36;;;;;;;32.92;15.65;;;-0.30;99.90;;;;;;7402822;19;19915;-75
2023/01/25 05:44:06;;;;;;;33.40;15.52;;;0.10;99.90;;;;;;7406171;19;19922;-76
2023/01/25 05:46:37;;;;;;;34.05;15.15;;;-1.00;99.90;;;;;;7406906;19;20410;-75
2023/01/25 05:49:06;;;;;;;34.97;17.10;;;-0.20;99.90;;;;;;7402539;19;19919;-75
2023/01/25 05:51:37;;;;;;;31.60;15.65;;;0.20;99.90;;;;;;7402945;19;19918;-75
2023/01/25 05:54:06;;;;;;;37.80;15.88;;;-0.70;99.90;;;;;;7400820;19;19926;-75
2023/01/25 05:56:35;;;;;;;38.42;16.05;;;-0.10;99.90;;;;;;7401723;19;19914;-75
2023/01/25 05:59:04;;;;;;;39.05;18.20;;;-0.70;99.90;;;;;;7402361;19;20269;-75
2023/01/25 06:01:34;;;;;;;32.90;15.60;;;0.30;99.90;;;;;;7404999;19;20245;-75
2023/01/25 06:04:06;;;;;;;34.65;16.35;;;-0.70;99.90;;;;;;7402761;19;19918;-75
2023/01/25 06:06:35;;;;;;;34.53;16.15;;;-0.30;99.90;;;;;;7404737;19;20268;-75
2023/01/25 06:09:04;;;;;;;38.88;17.92;;;0.40;99.90;;;;;;7402075;19;19925;-75
2023/01/25 06:11:33;;;;;;;33.55;15.65;;;0.40;99.90;;;;;;7401718;19;19910;-75
2023/01/25 06:14:02;;;;;;;38.70;16.98;;;-1.00;99.90;;;;;;7399719;19;19919;-75
2023/01/25 06:16:31;;;;;;;38.10;16.08;;;-1.30;99.90;;;;;;7404024;19;19911;-75
2023/01/25 06:18:59;;;;;;;34.58;15.70;;;0.40;99.90;;;;;;7401726;19;19925;-76
2023/01/25 06:21:31;;;;;;;34.80;15.82;;;-0.70;99.90;;;;;;7404579;19;19937;-75
2023/01/25 06:24:00;;;;;;;37.90;17.45;;;0.00;99.90;;;;;;7400666;19;19926;-75
2023/01/25 06:26:29;;;;;;;39.47;16.40;;;-1.10;99.90;;;;;;7401251;19;19921;-75
2023/01/25 06:28:58;;;;;;;34.50;16.67;;;-0.30;99.90;;;;;;7402757;19;19911;-76
2023/01/25 06:31:27;;;;;;;36.10;16.42;;;;;;;;;;7403274;19;19919;-76
2023/01/25 06:33:58;;;;;;;36.88;16.92;;;0.20;99.90;;;;;;7402931;19;20245;-75
2023/01/25 06:36:27;;;;;;;34.53;16.60;;;0.30;99.90;;;;;;7410266;19;19939;-76
2023/01/25 06:38:58;;;;;;;40.20;17.23;;;-0.40;99.90;;;;;;7408289;19;19922;-75
2023/01/25 06:41:28;;;;;;;37.83;16.75;;;-0.50;99.90;;;;;;7409686;19;19930;-75
2023/01/25 06:43:57;;;;;;;40.33;16.65;;;0.20;99.90;;;;;;7409219;19;19921;-75
2023/01/25 06:46:25;;;;;;;34.63;16.60;;;-0.40;99.90;;;;;;7410011;19;19926;-75
2023/01/25 06:48:54;;;;;;;39.08;16.65;;;-0.40;99.90;;;;;;7407582;19;20406;-76
2023/01/25 06:51:23;;;;;;;43.13;17.77;;;0.10;99.90;;;;;;7407725;19;19910;-75
2023/01/25 06:53:52;;;;;;;41.78;17.35;;;0.20;99.90;;;;;;7406197;19;19918;-75
2023/01/25 06:56:25;;;;;;;40.13;17.52;;;-0.40;99.90;;;;;;7407888;19;19914;-75
2023/01/25 06:58:54;;;;;;;39.33;16.95;;;-0.60;99.90;;;;;;7407771;19;19929;-75
2023/01/25 07:01:26;;;;;;;38.53;17.30;;;0.20;99.90;;;;;;7408588;19;19922;-75
2023/01/25 07:03:57;;;;;;;39.25;17.05;;;-1.00;99.90;;;;;;7406712;19;20345;-75
2023/01/25 07:06:27;;;;;;;38.03;16.85;;;-0.50;99.90;;;;;;7408790;19;19923;-75
2023/01/25 07:08:56;;;;;;;42.63;18.48;;;0.10;99.90;;;;;;7409789;19;19937;-75
2023/01/25 07:11:28;;;;;;;42.38;16.83;;;0.20;99.90;;;;;;7408957;19;19955;-75
2023/01/25 07:13:57;;;;;;;35.58;17.17;;;-0.30;99.90;;;;;;7405210;19;19923;-75
2023/01/25 07:16:25;;;;;;;40.65;16.73;;;-1.10;99.90;;;;;;7406576;19;19918;-75
2023/01/25 07:18:55;;;;;;;39.60;15.90;;;-1.40;99.90;;;;;;7409329;19;20349;-75
2023/01/25 07:21:25;;;;;;;44.50;17.65;;;0.10;99.90;;;;;;7411622;19;20524;-75
2023/01/25 07:23:54;;;;;;;40.83;16.60;;;-0.30;99.90;;;;;;7404568;19;19923;-75
2023/01/25 07:26:25;;;;;;;43.63;19.48;;;-0.60;99.90;;;;;;7410360;19;19921;-75
2023/01/25 07:28:59;;;;;;;45.08;18.00;;;-1.30;99.90;;;;;;7407834;19;19922;-75
2023/01/25 07:31:28;;;;;;;41.40;17.80;;;0.00;99.90;;;;;;7408194;19;20357;-75
2023/01/25 07:33:58;;;;;;;46.38;20.20;;;-0.30;99.90;;;;;;7408046;19;20268;-75
2023/01/25 07:36:27;;;;;;;38.80;17.83;;;-0.10;99.90;;;;;;7410674;19;19915;-75
2023/01/25 07:38:57;;;;;;;42.72;16.80;;;0.00;99.90;;;;;;7405975;19;19939;-75
2023/01/25 07:41:27;;;;;;;35.83;16.63;;;-1.20;99.90;;;;;;7409660;19;19923;-75
2023/01/25 07:43:58;;;;;;;42.85;17.25;;;-1.10;99.90;;;;;;7406628;19;20015;-75
2023/01/25 07:46:27;;;;;;;37.13;16.52;;;-0.60;99.90;;;;;;7407813;19;19929;-75
2023/01/25 07:48:57;;;;;;;39.70;16.58;;;-0.20;99.90;;;;;;7406513;19;19922;-75
2023/01/25 07:51:29;;;;;;;41.42;18.40;;;-0.10;99.90;;;;;;7407757;19;19959;-75
2023/01/25 07:53:59;;;;;;;41.83;18.08;;;-1.10;99.90;;;;;;7404372;19;20309;-75
2023/01/25 07:56:30;;;;;;;39.58;17.65;;;-0.40;99.90;;;;;;7405582;19;19939;-75
2023/01/25 07:59:07;;;;;;;38.92;16.65;;;-0.90;99.90;;;;;;7405649;19;19918;-76
2023/01/25 08:01:36;;;;;;;43.13;18.95;;;-1.30;99.90;;;;;;7407788;19;19934;-75
2023/01/25 08:04:06;;;;;;;40.95;17.25;;;-0.50;99.90;;;;;;7405747;19;19918;-75
2023/01/25 08:06:37;;;;;;;41.42;17.33;;;-0.60;99.90;;;;;;7408844;19;19974;-75
2023/01/25 08:09:09;;;;;;;43.25;19.35;;;-0.80;99.90;;;;;;7406076;19;19925;-75
2023/01/25 08:11:37;;;;;;;40.72;18.23;;;-1.10;99.90;;;;;;7407638;19;19918;-75
2023/01/25 08:14:10;;;;;;;34.80;14.73;;;-1.40;99.90;;;;;;7403856;19;20336;-76
2023/01/25 08:16:39;;;;;;;41.78;17.08;;;-1.30;99.90;;;;;;7408342;19;19919;-75
2023/01/25 08:19:08;;;;;;;40.17;17.58;;;-1.40;99.90;;;;;;7405088;19;20490;-75
2023/01/25 08:21:37;;;;;;;37.20;19.02;;;-0.60;99.90;;;;;;7406264;19;20301;-75
2023/01/25 08:24:08;;;;;;;40.72;18.13;;;-0.90;99.90;;;;;;7404360;19;19925;-75
2023/01/25 08:26:38;;;;;;;41.38;17.45;;;-1.00;99.90;;;;;;7407565;19;19919;-75
2023/01/25 08:29:09;;;;;;;38.90;16.83;;;-0.30;99.90;;;;;;7404718;19;19919;-75
2023/01/25 08:31:40;;;;;;;40.65;16.85;;;-0.30;99.90;;;;;;7406586;19;19930;-75
2023/01/25 08:34:13;;;;;;;44.80;17.92;;;-1.30;99.90;;;;;;7407553;19;19937;-75
2023/01/25 08:36:42;;;;;;;41.00;17.30;;;-1.60;99.90;;;;;;7409422;19;19927;-75
2023/01/25 08:39:13;;;;;;;40.42;18.13;;;0.00;99.90;;;;;;7405383;19;20261;-75
2023/01/25 08:41:44;;;;;;;41.15;17.58;;;-1.00;99.90;;;;;;7405771;19;19926;-76
2023/01/25 08:44:15;;;;;;;48.55;18.33;;;-0.20;99.90;;;;;;7405013;19;19914;-75
2023/01/25 08:46:45;;;;;;;42.10;18.23;;;-1.50;99.90;;;;;;7407122;19;19939;-75
2023/01/25 08:49:13;;;;;;;41.67;17.42;;;-1.80;99.90;;;;;;7404415;19;19915;-75
2023/01/25 08:51:43;;;;;;;36.25;17.50;;;-0.80;99.90;;;;;;7404995;19;19923;-75
2023/01/25 08:54:14;;;;;;;42.72;18.08;;;-0.10;99.90;;;;;;7403036;19;20252;-75
2023/01/25 08:56:44;;;;;;;35.72;15.48;;;-0.70;99.90;;;;;;7404115;19;19918;-75
2023/01/25 08:59:15;;;;;;;36.30;15.70;;;-1.40;99.90;;;;;;7402736;19;19933;-75
2023/01/25 09:01:45;;;;;;;39.45;15.98;;;;;;;;;;7407305;19;19929;-75
2023/01/25 09:04:14;;;;;;;33.15;14.75;;;-1.30;99.90;;;;;;7406525;19;19919;-75
2023/01/25 09:06:43;;;;;;;33.25;14.27;;;-0.70;99.90;;;;;;7402800;19;19922;-76
2023/01/25 09:09:13;;;;;;;33.53;14.77;;;-1.40;99.90;;;;;;7407498;19;19918;-75
2023/01/25 09:11:42;;;;;;;36.35;14.68;;;-1.40;99.90;;;;;;7403300;19;19925;-75
2023/01/25 09:14:11;;;;;;;34.22;14.77;;;-1.30;99.90;;;;;;7403677;19;19952;-75
2023/01/25 09:16:42;;;;;;;32.80;15.30;;;-0.80;99.90;;;;;;7406440;19;19926;-75
2023/01/25 09:19:12;;;;;;;39.33;15.77;;;-1.40;99.90;;;;;;7407738;19;19930;-75
2023/01/25 09:21:41;;;;;;;37.72;15.90;;;-0.70;99.90;;;;;;7403870;19;19929;-75
2023/01/25 09:24:10;;;;;;;34.13;14.30;;;;;;;;;;7402641;19;19925;-75
2023/01/25 09:26:41;;;;;;;32.60;14.77;;;-0.10;99.90;;;;;;7403877;19;19934;-76
2023/01/25 09:29:10;;;;;;;32.28;14.50;;;0.00;99.90;;;;;;7403447;19;19926;-75
2023/01/25 09:31:42;;;;;;;30.10;14.98;;;-1.30;99.90;;;;;;7402861;19;19914;-75
2023/01/25 09:34:12;;;;;;;32.38;14.55;;;-0.40;99.90;;;;;;7404522;19;19922;-76
2023/01/25 09:36:41;;;;;;;36.58;16.60;;;0.10;99.90;;;;;;7404896;19;20280;-75
2023/01/25 09:39:12;;;;;;;31.42;14.40;;;0.10;99.90;;;;;;7403541;19;19928;-76
2023/01/25 09:42:05;;;;;;;35.53;15.32;;;-0.30;99.90;;;;;;7404139;19;19943;-75
2023/01/25 09:44:47;;;;;;;39.75;15.48;;;-0.30;99.90;;;;;;7401868;19;19915;-75
2023/01/25 09:47:27;;;;;;;34.63;15.60;;;-1.10;99.90;;;;;;7405159;19;19915;-75
2023/01/25 09:50:21;;;;;;;31.63;13.48;;;-1.30;99.90;;;;;;7404009;19;20820;-75
2023/01/25 09:53:17;;;;;;;32.75;14.25;;;-0.80;99.90;;;;;;7402748;19;19911;-75
2023/01/25 09:55:52;;;;;;;31.27;13.80;;;-0.40;99.90;;;;;;7402786;19;19930;-75
2023/01/25 09:58:25;;;;;;;35.40;16.73;;;-0.10;99.90;;;;;;7402537;19;19991;-75
2023/01/25 10:01:04;;;;;;;34.80;14.38;;;-0.20;99.90;;;;;;7402291;19;19922;-75
2023/01/25 10:03:43;;;;;;;35.45;14.38;;;-1.40;99.90;;;;;;7405172;19;20423;-76
2023/01/25 10:06:15;;;;;;;36.63;15.70;;;-0.90;99.90;;;;;;7402368;19;19919;-75
2023/01/25 10:08:51;;;;;;;32.10;12.80;;;-0.30;99.90;;;;;;7401565;19;19919;-75
2023/01/25 10:11:25;;;;;;;36.40;15.02;;;-0.90;99.90;;;;;;7409341;19;19929;-76
2023/01/25 10:13:55;;;;;;;36.00;15.48;;;-1.80;99.90;;;;;;7407807;19;19911;-75
2023/01/25 10:16:28;;;;;;;38.22;15.95;;;-1.20;99.90;;;;;;7411835;19;20341;-75
2023/01/25 10:19:09;;;;;;;30.15;13.20;;;-0.70;99.90;;;;;;7408456;19;19933;-75
2023/01/25 10:21:42;;;;;;;31.10;14.38;;;-1.30;99.90;;;;;;7412052;19;20360;-76
2023/01/25 10:24:47;;;;;;;32.85;14.05;;;-0.20;99.90;;;;;;7407296;19;20333;-76
2023/01/25 10:27:26;;;;;;;35.78;14.65;;;-1.50;99.90;;;;;;7410682;19;19988;-75
2023/01/25 10:29:58;;;;;;;29.38;13.88;;;-1.90;99.90;;;;;;7409383;19;19931;-75
2023/01/25 10:32:31;;;;;;;39.10;15.25;;;-0.60;99.90;;;;;;7409997;19;19919;-76
2023/01/25 10:35:20;;;;;;;45.10;15.77;;;-1.20;99.90;;;;;;7407193;19;19935;-75
2023/01/25 10:37:49;;;;;;;32.72;14.43;;;-1.30;99.90;;;;;;7407962;19;19920;-76
2023/01/25 10:40:23;;;;;;;30.90;12.95;;;-1.40;99.90;;;;;;7409358;19;19914;-75
2023/01/25 10:42:59;;;;;;;32.97;14.75;;;-0.10;99.90;;;;;;7411517;19;19925;-75
2023/01/25 10:45:28;;;;;;;32.17;13.73;;;-0.10;99.90;;;;;;7410640;19;19919;-74
2023/01/25 10:48:02;;;;;;;36.60;14.90;;;0.00;99.90;;;;;;7410133;19;19925;-75
2023/01/25 10:50:56;;;;;;;29.88;13.10;;;-0.20;99.90;;;;;;7410261;19;19918;-75
2023/01/25 10:53:36;;;;;;;30.77;14.30;;;-0.30;99.90;;;;;;7407558;19;19919;-75
2023/01/25 10:56:22;;;;;;;33.63;12.82;;;-0.20;99.90;;;;;;7410418;19;19926;-76
2023/01/25 10:58:53;;;;;;;36.47;15.00;;;-0.30;99.90;;;;;;7407562;19;19926;-75
2023/01/25 11:01:32;;;;;;;29.35;13.00;;;-1.70;99.90;;;;;;7411087;19;19922;-75
2023/01/25 11:04:02;;;;;;;31.42;14.35;;;-0.90;99.90;;;;;;7410770;19;19930;-75
2023/01/25 11:06:39;;;;;;;35.10;14.07;;;-0.50;99.90;;;;;;7405892;19;19982;-75
2023/01/25 11:09:33;;;;;;;35.50;15.75;;;-0.80;99.90;;;;;;7411356;19;19939;-75
2023/01/25 11:12:04;;;;;;;35.83;14.35;;;-1.70;99.90;;;;;;7406286;19;19918;-76
2023/01/25 11:14:34;;;;;;;32.30;14.90;;;-1.30;99.90;;;;;;7409160;19;20338;-75
2023/01/25 11:17:06;;;;;;;32.40;14.73;;;-1.10;99.90;;;;;;7406515;19;19925;-75
2023/01/25 11:19:37;;;;;;;35.25;14.25;;;-1.00;99.90;;;;;;7406039;19;19919;-75
2023/01/25 11:22:23;;;;;;;33.55;14.25;;;-0.50;99.90;;;;;;7405457;19;20371;-75
2023/01/25 11:24:52;;;;;;;35.83;16.20;;;-0.90;99.90;;;;;;7405650;19;20317;-75
2023/01/25 11:27:24;;;;;;;39.45;15.88;;;-0.30;99.90;;;;;;7407419;19;19937;-75
2023/01/25 11:30:11;;;;;;;37.92;15.10;;;-0.30;99.90;;;;;;7407630;19;19923;-75
2023/01/25 11:32:41;;;;;;;36.15;15.10;;;-0.80;99.90;;;;;;7406437;19;19914;-75
2023/01/25 11:35:15;;;;;;;36.90;14.80;;;-1.20;99.90;;;;;;7404949;19;19932;-75
2023/01/25 11:38:08;;;;;;;36.65;15.18;;;-0.20;99.90;;;;;;7406061;19;19922;-75
2023/01/25 11:40:43;;;;;;;34.35;15.02;;;-0.10;99.90;;;;;;7407666;19;19929;-75
2023/01/25 11:43:26;;;;;;;39.13;15.05;;;-1.60;99.90;;;;;;7407897;19;19922;-75
2023/01/25 11:46:11;;;;;;;35.95;14.85;;;-1.10;99.90;;;;;;7406064;19;19924;-75
2023/01/25 11:49:04;;;;;;;33.85;15.35;;;-0.20;99.90;;;;;;7406097;19;20285;-75
2023/01/25 11:51:40;;;;;;;36.53;14.95;;;-0.60;99.90;;;;;;7409791;19;19923;-75
2023/01/25 11:54:34;;;;;;;39.17;15.75;;;-0.80;99.90;;;;;;7405621;19;19925;-75
2023/01/25 11:57:17;;;;;;;36.25;14.70;;;-0.30;99.90;;;;;;7404777;19;20354;-75
2023/01/25 12:00:04;;;;;;;30.02;12.70;;;-1.20;99.90;;;;;;7405664;19;19929;-76
2023/01/25 12:02:59;;;;;;;37.85;14.15;;;-0.10;99.90;;;;;;7409326;19;19918;-75
2023/01/25 12:05:41;;;;;;;37.88;14.20;;;-1.60;99.90;;;;;;7407762;19;19978;-75
2023/01/25 12:08:35;;;;;;;32.75;13.30;;;-0.50;99.90;;;;;;7404854;19;19919;-75
2023/01/25 12:11:15;;;;;;;29.08;12.57;;;-1.40;99.90;;;;;;7407424;19;19922;-75
2023/01/25 12:13:53;;;;;;;34.38;14.48;;;-0.20;99.90;;;;;;7407990;19;20272;-75
2023/01/25 12:16:37;;;;;;;28.75;12.52;;;-0.90;99.90;;;;;;7404283;19;20347;-75
2023/01/25 12:19:29;;;;;;;31.98;12.20;;;-1.10;99.90;;;;;;7405195;19;19911;-76
2023/01/25 12:22:13;;;;;;;29.45;12.35;;;-1.40;99.90;;;;;;7408492;19;19918;-75
2023/01/25 12:24:53;;;;;;;34.78;14.30;;;-0.60;99.90;;;;;;7404081;19;19922;-75
2023/01/25 12:27:36;;;;;;;29.55;11.88;;;-0.10;99.90;;;;;;7405749;19;19978;-75
2023/01/25 12:30:15;;;;;;;33.72;13.65;;;-0.20;99.90;;;;;;7406657;19;19954;-75
2023/01/25 12:32:51;;;;;;;31.48;12.73;;;-0.80;99.90;;;;;;7402245;19;19922;-74
2023/01/25 12:35:30;;;;;;;30.88;12.27;;;-0.10;99.90;;;;;;7405233;19;19926;-75
2023/01/25 12:38:04;;;;;;;34.40;13.73;;;-0.40;99.90;;;;;;7405011;19;20321;-75
2023/01/25 12:40:43;;;;;;;35.83;14.07;;;0.00;99.90;;;;;;7406858;19;19934;-75
2023/01/25 12:43:20;;;;;;;31.25;12.13;;;-0.10;99.90;;;;;;7406255;19;19918;-76
2023/01/25 12:45:53;;;;;;;33.53;14.50;;;-0.70;99.90;;;;;;7407188;19;20336;-76
2023/01/25 12:48:28;;;;;;;31.88;14.32;;;-1.60;99.90;;;;;;7404194;19;19925;-75
2023/01/25 12:50:59;;;;;;;26.42;10.75;;;-1.30;99.90;;;;;;7406704;19;19939;-76
2023/01/25 12:53:33;;;;;;;37.83;13.50;;;-0.30;99.90;;;;;;7404036;19;20234;-75
2023/01/25 12:56:03;;;;;;;36.88;13.80;;;-0.40;99.90;;;;;;7405658;19;19932;-75
2023/01/25 12:58:45;;;;;;;32.42;13.13;;;-0.40;99.90;;;;;;7404208;19;20012;-76
2023/01/25 13:01:20;;;;;;;35.78;13.00;;;-1.40;99.90;;;;;;7407263;19;19921;-75
2023/01/25 13:04:04;;;;;;;28.77;10.35;;;-0.40;99.90;;;;;;7404324;19;19929;-75
2023/01/25 13:06:41;;;;;;;30.33;12.05;;;-1.50;99.90;;;;;;7402888;19;19919;-75
2023/01/25 13:09:20;;;;;;;29.15;12.40;;;-1.20;99.90;;;;;;7403687;19;19918;-75